Time;durP1;ratioP1;P1;durP2;ratioP2;P2;SDS_P1;SDS_P2;PMS_P1;PMS_P2;Temp;Humidity;BMP_temperature;BMP_pressure;BME280_temperature;BME280_humidity;BME280_pressure;Samples;Min_cycle;Max_cycle;Signal;HPM_P1;HPM_P2
2021/08/19 00:00:46;;;;;;;;;;;23.70;45.20;;;;;;1556616;75;741;-67
2021/08/19 00:02:48;;;;;;;;;;;23.70;45.20;;;;;;1555559;75;748;-65
2021/08/19 00:04:51;;;;;;;;;;;23.80;45.20;;;;;;1551861;76;816;-67
2021/08/19 00:06:53;;;;;;;;;;;23.70;45.20;;;;;;1551395;75;1173;-67
2021/08/19 00:08:55;;;;;;;;;;;23.80;45.20;;;;;;1552600;75;1946;-67
2021/08/19 00:10:57;;;;;;;;;;;23.80;45.20;;;;;;1553600;75;812;-69
2021/08/19 00:12:59;;;;;;;;;;;23.70;45.20;;;;;;1558566;75;723;-69
2021/08/19 00:15:01;;;;;;;;;;;23.80;45.20;;;;;;1546330;75;656;-67
2021/08/19 00:17:04;;;;;;;;;;;23.80;45.20;;;;;;1556303;75;1137;-67
2021/08/19 00:19:06;;;;;;;;;;;23.80;45.20;;;;;;1542560;75;738;-67
2021/08/19 00:21:09;;;;;;;;;;;23.70;45.20;;;;;;1537399;75;747;-68
2021/08/19 00:23:11;;;;;;;;;;;23.70;45.30;;;;;;1541278;75;679;-67
2021/08/19 00:25:12;;;;;;;;;;;23.70;45.20;;;;;;1558137;75;796;-68
2021/08/19 00:27:14;;;;;;;;;;;23.70;45.30;;;;;;1567871;75;1128;-67
2021/08/19 00:29:16;;;;;;;;;;;23.70;45.30;;;;;;1549738;75;1950;-68
2021/08/19 00:31:20;;;;;;;;;;;23.70;45.30;;;;;;1571521;75;707;-69
2021/08/19 00:33:22;;;;;;;;;;;23.70;45.30;;;;;;1562098;75;1986;-66
2021/08/19 00:35:23;;;;;;;;;;;23.80;45.30;;;;;;1560428;75;1161;-67
2021/08/19 00:37:25;;;;;;;;;;;23.70;45.30;;;;;;1547781;75;778;-67
2021/08/19 00:39:27;;;;;;;;;;;23.80;45.30;;;;;;1551659;75;735;-67
2021/08/19 00:41:29;;;;;;;;;;;23.80;45.30;;;;;;1555170;75;802;-68
2021/08/19 00:43:33;;;;;;;;;;;23.70;45.30;;;;;;1565403;75;684;-67
2021/08/19 00:45:37;;;;;;;;;;;23.70;45.30;;;;;;1557735;75;1153;-67
2021/08/19 00:47:39;;;;;;;;;;;23.80;45.30;;;;;;1572908;75;1922;-67
2021/08/19 00:49:41;;;;;;;;;;;23.80;45.30;;;;;;1547967;75;792;-68
2021/08/19 00:51:44;;;;;;;;;;;23.70;45.30;;;;;;1560922;75;750;-68
2021/08/19 00:53:46;;;;;;;;;;;23.70;45.30;;;;;;1562956;75;761;-67
2021/08/19 00:55:49;;;;;;;;;;;23.70;45.30;;;;;;1542295;75;1180;-67
2021/08/19 00:57:51;;;;;;;;;;;23.80;45.30;;;;;;1562731;75;839;-68
2021/08/19 00:59:53;;;;;;;;;;;23.80;45.30;;;;;;1573894;75;799;-66
2021/08/19 01:01:55;;;;;;;;;;;23.70;45.30;;;;;;1560418;75;827;-67
2021/08/19 01:03:57;;;;;;;;;;;23.80;45.30;;;;;;1565917;75;778;-68
2021/08/19 01:05:59;;;;;;;;;;;23.80;45.30;;;;;;1546049;75;1174;-68
2021/08/19 01:08:01;;;;;;;;;;;23.70;45.30;;;;;;1546137;75;1935;-69
2021/08/19 01:10:03;;;;;;;;;;;23.70;45.30;;;;;;1544299;75;734;-67
2021/08/19 01:12:05;;;;;;;;;;;23.70;45.30;;;;;;1534420;77;922;-69
2021/08/19 01:14:08;;;;;;;;;;;23.80;45.40;;;;;;1539554;75;725;-68
2021/08/19 01:16:10;;;;;;;;;;;23.70;45.30;;;;;;1544287;76;1855;-67
2021/08/19 01:18:12;;;;;;;;;;;23.70;45.30;;;;;;1556425;75;738;-68
2021/08/19 01:20:14;;;;;;;;;;;23.70;45.40;;;;;;1558496;75;737;-71
2021/08/19 01:22:16;;;;;;;;;;;23.70;45.40;;;;;;1541059;75;728;-68
2021/08/19 01:24:18;;;;;;;;;;;23.70;45.40;;;;;;1553772;75;701;-68
2021/08/19 01:26:20;;;;;;;;;;;23.80;45.40;;;;;;1545850;75;1172;-67
2021/08/19 01:28:22;;;;;;;;;;;23.70;45.50;;;;;;1546809;75;1935;-67
2021/08/19 01:30:24;;;;;;;;;;;23.70;45.40;;;;;;1549579;75;785;-68
2021/08/19 01:32:27;;;;;;;;;;;23.70;45.40;;;;;;1545718;75;917;-68
2021/08/19 01:34:29;;;;;;;;;;;23.70;45.40;;;;;;1551908;75;857;-67
2021/08/19 01:36:31;;;;;;;;;;;23.70;45.40;;;;;;1567427;75;1164;-70
2021/08/19 01:38:34;;;;;;;;;;;23.80;45.40;;;;;;1548028;76;810;-67
2021/08/19 01:40:36;;;;;;;;;;;23.80;45.40;;;;;;1553182;75;800;-67
2021/08/19 01:42:38;;;;;;;;;;;23.80;45.40;;;;;;1552266;75;785;-68
2021/08/19 01:44:40;;;;;;;;;;;23.80;45.40;;;;;;1548069;75;701;-67
2021/08/19 01:46:42;;;;;;;;;;;23.80;45.40;;;;;;1556698;73;225687;-63
2021/08/19 01:48:48;;;;;;;;;;;23.80;45.40;;;;;;1559838;75;1949;-63
2021/08/19 01:50:49;;;;;;;;;;;23.70;45.40;;;;;;1564158;74;723;-63
2021/08/19 01:52:51;;;;;;;;;;;23.70;45.40;;;;;;1568170;74;605;-63
2021/08/19 01:54:53;;;;;;;;;;;23.70;45.40;;;;;;1569449;74;741;-63
2021/08/19 01:56:55;;;;;;;;;;;23.80;45.40;;;;;;1558247;75;1185;-60
2021/08/19 01:58:57;;;;;;;;;;;23.70;45.50;;;;;;1571171;74;749;-62
2021/08/19 02:00:59;;;;;;;;;;;23.80;45.40;;;;;;1552952;75;737;-63
2021/08/19 02:03:01;;;;;;;;;;;23.70;45.50;;;;;;1568197;74;763;-63
2021/08/19 02:05:03;;;;;;;;;;;23.70;45.40;;;;;;1571448;74;755;-63
2021/08/19 02:07:05;;;;;;;;;;;23.70;45.50;;;;;;1570652;74;1176;-64
2021/08/19 02:09:07;;;;;;;;;;;23.70;45.50;;;;;;1560346;74;1935;-63
2021/08/19 02:11:09;;;;;;;;;;;23.70;45.40;;;;;;1564691;74;723;-63
2021/08/19 02:13:12;;;;;;;;;;;23.80;45.40;;;;;;1559602;74;723;-63
2021/08/19 02:15:14;;;;;;;;;;;23.70;45.40;;;;;;1570973;74;710;-63
2021/08/19 02:17:16;;;;;;;;;;;23.80;45.40;;;;;;1571420;74;1161;-62
2021/08/19 02:19:18;;;;;;;;;;;23.70;45.50;;;;;;1570963;74;775;-62
2021/08/19 02:21:19;;;;;;;;;;;23.70;45.40;;;;;;1561253;74;771;-62
2021/08/19 02:23:21;;;;;;;;;;;23.70;45.50;;;;;;1571432;74;696;-62
2021/08/19 02:25:23;;;;;;;;;;;23.80;45.40;;;;;;1571481;74;722;-62
2021/08/19 02:27:26;;;;;;;;;;;23.70;45.50;;;;;;1571474;74;1108;-61
2021/08/19 02:29:28;;;;;;;;;;;23.70;45.50;;;;;;1556634;74;1913;-62
2021/08/19 02:31:29;;;;;;;;;;;23.70;45.50;;;;;;1561065;74;725;-63
2021/08/19 02:33:31;;;;;;;;;;;23.70;45.50;;;;;;1576388;74;734;-63
2021/08/19 02:35:33;;;;;;;;;;;23.70;45.50;;;;;;1576014;74;742;-63
2021/08/19 02:37:35;;;;;;;;;;;23.70;45.50;;;;;;1568253;75;1141;-63
2021/08/19 02:39:37;;;;;;;;;;;23.70;45.50;;;;;;1571195;74;785;-63
2021/08/19 02:41:39;;;;;;;;;;;23.70;45.50;;;;;;1579970;74;777;-63
2021/08/19 02:43:44;;;;;;;;;;;23.70;45.50;;;;;;1577614;74;656;-62
2021/08/19 02:45:46;;;;;;;;;;;23.70;45.50;;;;;;1559181;74;1205;-63
2021/08/19 02:47:47;;;;;;;;;;;23.70;45.50;;;;;;1559695;74;788;-62
2021/08/19 02:49:49;;;;;;;;;;;23.70;45.50;;;;;;1570359;74;1940;-63
2021/08/19 02:51:51;;;;;;;;;;;23.70;45.50;;;;;;1570329;74;817;-63
2021/08/19 02:53:53;;;;;;;;;;;23.70;45.50;;;;;;1571581;74;812;-63
2021/08/19 02:55:55;;;;;;;;;;;23.70;45.60;;;;;;1571384;74;1156;-63
2021/08/19 02:57:57;;;;;;;;;;;23.60;45.40;;;;;;1570340;74;801;-63
2021/08/19 02:59:59;;;;;;;;;;;23.70;45.60;;;;;;1559982;74;729;-61
2021/08/19 03:02:00;;;;;;;;;;;23.70;45.60;;;;;;1568596;74;828;-62
2021/08/19 03:04:02;;;;;;;;;;;23.70;45.50;;;;;;1570978;75;720;-63
2021/08/19 03:06:04;;;;;;;;;;;23.70;45.60;;;;;;1560346;74;1126;-63
2021/08/19 03:08:06;;;;;;;;;;;23.70;45.60;;;;;;1565603;75;737;-63
2021/08/19 03:10:08;;;;;;;;;;;23.70;45.60;;;;;;1571241;74;1934;-63
2021/08/19 03:12:10;;;;;;;;;;;23.70;45.60;;;;;;1571307;74;730;-63
2021/08/19 03:14:12;;;;;;;;;;;23.70;45.60;;;;;;1571211;74;752;-63
2021/08/19 03:16:14;;;;;;;;;;;23.70;45.60;;;;;;1564442;74;1193;-62
2021/08/19 03:18:16;;;;;;;;;;;23.70;45.60;;;;;;1558364;74;736;-62
2021/08/19 03:20:18;;;;;;;;;;;23.70;45.60;;;;;;1557493;74;782;-63
2021/08/19 03:22:20;;;;;;;;;;;23.70;45.60;;;;;;1547946;74;775;-62
2021/08/19 03:24:22;;;;;;;;;;;23.70;45.60;;;;;;1563028;74;723;-63
2021/08/19 03:26:24;;;;;;;;;;;23.70;45.70;;;;;;1562975;74;1100;-63
2021/08/19 03:28:26;;;;;;;;;;;23.70;45.60;;;;;;1562326;74;674;-63
2021/08/19 03:30:28;;;;;;;;;;;23.70;45.60;;;;;;1584913;74;1936;-62
2021/08/19 03:32:30;;;;;;;;;;;23.70;45.60;;;;;;1576462;74;810;-60
2021/08/19 03:34:32;;;;;;;;;;;23.70;45.60;;;;;;1575018;74;812;-62
2021/08/19 03:36:34;;;;;;;;;;;23.70;45.60;;;;;;1579339;74;1152;-63
2021/08/19 03:38:36;;;;;;;;;;;23.70;45.60;;;;;;1565675;74;714;-62
2021/08/19 03:40:38;;;;;;;;;;;23.70;45.70;;;;;;1578675;74;919;-63
2021/08/19 03:42:39;;;;;;;;;;;23.70;45.70;;;;;;1573606;74;816;-63
2021/08/19 03:44:41;;;;;;;;;;;23.70;45.70;;;;;;1554970;74;750;-63
2021/08/19 03:46:43;;;;;;;;;;;23.70;45.60;;;;;;1567517;75;1184;-63
2021/08/19 03:48:45;;;;;;;;;;;23.70;45.60;;;;;;1564765;74;1946;-63
2021/08/19 03:50:47;;;;;;;;;;;23.70;45.60;;;;;;1571563;74;653;-61
2021/08/19 03:52:50;;;;;;;;;;;23.70;45.60;;;;;;1571510;74;785;-63
2021/08/19 03:54:52;;;;;;;;;;;23.70;45.60;;;;;;1567520;74;727;-63
2021/08/19 03:56:54;;;;;;;;;;;23.70;45.60;;;;;;1568070;74;1180;-63
2021/08/19 03:58:56;;;;;;;;;;;23.70;45.70;;;;;;1564597;74;662;-63
2021/08/19 04:00:58;;;;;;;;;;;23.70;45.60;;;;;;1567578;74;815;-63
2021/08/19 04:03:00;;;;;;;;;;;23.70;45.60;;;;;;1557864;74;745;-63
2021/08/19 04:05:02;;;;;;;;;;;23.70;45.70;;;;;;1558907;74;672;-61
2021/08/19 04:07:04;;;;;;;;;;;23.70;45.60;;;;;;1571538;74;1140;-63
2021/08/19 04:09:06;;;;;;;;;;;23.70;45.70;;;;;;1566181;74;1963;-63
2021/08/19 04:11:08;;;;;;;;;;;23.60;45.50;;;;;;1560275;74;820;-63
2021/08/19 04:13:10;;;;;;;;;;;23.70;45.70;;;;;;1557241;74;779;-63
2021/08/19 04:15:12;;;;;;;;;;;23.60;45.60;;;;;;1571462;74;745;-63
2021/08/19 04:17:14;;;;;;;;;;;23.70;45.70;;;;;;1572274;74;1188;-62
2021/08/19 04:19:15;;;;;;;;;;;23.70;45.70;;;;;;1550575;75;782;-62
2021/08/19 04:21:17;;;;;;;;;;;23.70;45.70;;;;;;1577760;74;722;-63
2021/08/19 04:23:20;;;;;;;;;;;23.70;45.70;;;;;;1569350;74;663;-63
2021/08/19 04:25:21;;;;;;;;;;;23.60;45.60;;;;;;1575949;74;801;-63
2021/08/19 04:27:23;;;;;;;;;;;23.60;45.50;;;;;;1572000;74;1110;-63
2021/08/19 04:29:25;;;;;;;;;;;23.70;45.70;;;;;;1566296;74;1949;-63
2021/08/19 04:31:27;;;;;;;;;;;23.60;45.50;;;;;;1569731;74;755;-63
2021/08/19 04:33:29;;;;;;;;;;;23.70;45.70;;;;;;1579530;74;740;-62
2021/08/19 04:35:32;;;;;;;;;;;23.70;45.70;;;;;;1557255;74;1046;-60
2021/08/19 04:37:34;;;;;;;;;;;23.70;45.70;;;;;;1570451;74;1123;-62
2021/08/19 04:39:36;;;;;;;;;;;23.70;45.70;;;;;;1573402;74;845;-63
2021/08/19 04:41:38;;;;;;;;;;;23.60;45.50;;;;;;1580017;74;777;-63
2021/08/19 04:43:40;;;;;;;;;;;23.60;45.60;;;;;;1576667;74;787;-63
2021/08/19 04:45:42;;;;;;;;;;;23.60;45.60;;;;;;1573524;74;1095;-63
2021/08/19 04:47:43;;;;;;;;;;;23.60;45.60;;;;;;1571483;75;837;-61
2021/08/19 04:49:45;;;;;;;;;;;23.70;45.70;;;;;;1558378;74;1943;-63
2021/08/19 04:51:47;;;;;;;;;;;23.70;45.80;;;;;;1571189;74;760;-60
2021/08/19 04:53:49;;;;;;;;;;;23.70;45.70;;;;;;1578136;74;686;-63
2021/08/19 04:55:51;;;;;;;;;;;23.70;45.70;;;;;;1576367;74;1165;-63
2021/08/19 04:57:53;;;;;;;;;;;23.60;45.60;;;;;;1567290;74;665;-63
2021/08/19 04:59:55;;;;;;;;;;;23.70;45.70;;;;;;1558764;74;813;-63
2021/08/19 05:01:57;;;;;;;;;;;23.70;45.70;;;;;;1573206;74;751;-63
2021/08/19 05:03:59;;;;;;;;;;;23.60;45.60;;;;;;1565147;74;733;-63
2021/08/19 05:06:01;;;;;;;;;;;23.60;45.70;;;;;;1568840;74;1198;-61
2021/08/19 05:08:03;;;;;;;;;;;23.60;45.70;;;;;;1571638;74;734;-63
2021/08/19 05:10:05;;;;;;;;;;;23.70;45.80;;;;;;1562828;75;1931;-61
2021/08/19 05:12:07;;;;;;;;;;;23.60;45.70;;;;;;1570421;74;791;-63
2021/08/19 05:14:09;;;;;;;;;;;23.70;45.80;;;;;;1571034;74;793;-62
2021/08/19 05:16:11;;;;;;;;;;;23.70;45.70;;;;;;1571506;74;1151;-63
2021/08/19 05:18:13;;;;;;;;;;;23.60;45.70;;;;;;1563464;74;720;-63
2021/08/19 05:20:15;;;;;;;;;;;23.70;45.80;;;;;;1551709;74;732;-61
2021/08/19 05:22:17;;;;;;;;;;;23.60;45.70;;;;;;1569884;74;783;-63
2021/08/19 05:24:19;;;;;;;;;;;23.70;45.80;;;;;;1566894;74;699;-64
2021/08/19 05:26:21;;;;;;;;;;;23.70;45.80;;;;;;1563530;74;1161;-62
2021/08/19 05:28:23;;;;;;;;;;;23.60;45.70;;;;;;1562214;74;713;-63
2021/08/19 05:30:24;;;;;;;;;;;23.60;45.70;;;;;;1584811;74;1941;-63
2021/08/19 05:32:26;;;;;;;;;;;23.70;45.80;;;;;;1558345;74;803;-63
2021/08/19 05:34:28;;;;;;;;;;;23.70;45.80;;;;;;1575143;74;738;-63
2021/08/19 05:36:30;;;;;;;;;;;23.70;45.90;;;;;;1572850;74;1150;-62
2021/08/19 05:38:32;;;;;;;;;;;23.70;45.90;;;;;;1568350;74;669;-62
2021/08/19 05:40:34;;;;;;;;;;;23.60;45.70;;;;;;1571761;74;811;-64
2021/08/19 05:42:36;;;;;;;;;;;23.60;45.70;;;;;;1572081;74;780;-63
2021/08/19 05:44:38;;;;;;;;;;;23.60;45.80;;;;;;1575702;74;790;-63
2021/08/19 05:46:40;;;;;;;;;;;23.60;45.80;;;;;;1559629;74;1127;-63
2021/08/19 05:48:42;;;;;;;;;;;23.60;45.80;;;;;;1570863;74;787;-61
2021/08/19 05:50:44;;;;;;;;;;;23.60;45.80;;;;;;1571208;74;1946;-63
2021/08/19 05:52:45;;;;;;;;;;;23.70;45.90;;;;;;1571217;74;776;-62
2021/08/19 05:54:47;;;;;;;;;;;23.60;45.80;;;;;;1563273;74;818;-62
2021/08/19 05:56:49;;;;;;;;;;;23.60;45.80;;;;;;1559705;74;1149;-63
2021/08/19 05:58:51;;;;;;;;;;;23.60;45.80;;;;;;1571166;74;788;-63
2021/08/19 06:00:53;;;;;;;;;;;23.60;45.80;;;;;;1571260;74;806;-63
2021/08/19 06:02:55;;;;;;;;;;;23.70;46.00;;;;;;1571458;74;722;-63
2021/08/19 06:04:57;;;;;;;;;;;23.60;45.90;;;;;;1566603;74;713;-63
2021/08/19 06:06:59;;;;;;;;;;;23.70;46.00;;;;;;1570875;74;1187;-63
2021/08/19 06:09:01;;;;;;;;;;;23.60;45.90;;;;;;1552821;74;660;-63
2021/08/19 06:11:02;;;;;;;;;;;23.70;46.00;;;;;;1555348;74;1945;-63
2021/08/19 06:13:04;;;;;;;;;;;23.60;46.00;;;;;;1571116;74;698;-63
2021/08/19 06:15:07;;;;;;;;;;;23.60;46.00;;;;;;1559821;74;698;-63
2021/08/19 06:17:09;;;;;;;;;;;23.60;46.00;;;;;;1568237;74;1152;-63
2021/08/19 06:19:11;;;;;;;;;;;23.60;46.00;;;;;;1571351;74;818;-63
2021/08/19 06:21:13;;;;;;;;;;;23.60;46.00;;;;;;1569836;75;683;-63
2021/08/19 06:23:14;;;;;;;;;;;23.60;46.00;;;;;;1556632;74;738;-63
2021/08/19 06:25:16;;;;;;;;;;;23.70;46.20;;;;;;1564060;74;786;-62
2021/08/19 06:27:18;;;;;;;;;;;23.70;46.20;;;;;;1572369;74;1203;-63
2021/08/19 06:29:20;;;;;;;;;;;23.60;46.00;;;;;;1562111;74;825;-63
2021/08/19 06:31:22;;;;;;;;;;;23.60;46.10;;;;;;1578318;74;1933;-63
2021/08/19 06:33:24;;;;;;;;;;;23.60;46.00;;;;;;1565195;74;720;-60
2021/08/19 06:35:26;;;;;;;;;;;23.70;46.30;;;;;;1582611;74;761;-63
2021/08/19 06:37:28;;;;;;;;;;;23.70;46.30;;;;;;1570960;74;1256;-62
2021/08/19 06:39:30;;;;;;;;;;;23.60;46.10;;;;;;1576942;74;865;-63
2021/08/19 06:41:31;;;;;;;;;;;23.60;46.10;;;;;;1581699;74;732;-61
2021/08/19 06:43:33;;;;;;;;;;;23.70;46.20;;;;;;1571728;74;722;-63
2021/08/19 06:45:35;;;;;;;;;;;23.70;46.30;;;;;;1576403;74;775;-63
2021/08/19 06:47:37;;;;;;;;;;;23.60;46.10;;;;;;1571055;74;753;-63
2021/08/19 06:49:41;;;;;;;;;;;23.60;46.20;;;;;;1571514;74;791;-63
2021/08/19 06:51:43;;;;;;;;;;;23.70;46.30;;;;;;1570874;74;1888;-64
2021/08/19 06:53:45;;;;;;;;;;;23.70;46.30;;;;;;1571342;74;819;-63
2021/08/19 06:55:47;;;;;;;;;;;23.70;46.40;;;;;;1577501;74;1117;-63
2021/08/19 06:57:48;;;;;;;;;;;23.70;46.40;;;;;;1564187;74;777;-63
2021/08/19 06:59:50;;;;;;;;;;;23.60;46.30;;;;;;1578927;74;889;-64
2021/08/19 07:01:52;;;;;;;;;;;23.60;46.30;;;;;;1569666;74;768;-63
2021/08/19 07:03:54;;;;;;;;;;;23.60;46.30;;;;;;1569432;74;779;-63
2021/08/19 07:05:56;;;;;;;;;;;23.70;46.50;;;;;;1567174;74;1174;-63
2021/08/19 07:07:59;;;;;;;;;;;23.60;46.40;;;;;;1566786;74;751;-63
2021/08/19 07:10:03;;;;;;;;;;;23.70;46.50;;;;;;1567945;74;1927;-64
2021/08/19 07:12:05;;;;;;;;;;;23.70;46.50;;;;;;1562680;74;722;-63
2021/08/19 07:14:06;;;;;;;;;;;23.70;46.60;;;;;;1572686;74;662;-61
2021/08/19 07:16:08;;;;;;;;;;;23.60;46.50;;;;;;1569259;74;1160;-63
2021/08/19 07:18:10;;;;;;;;;;;23.60;46.50;;;;;;1569400;74;734;-62
2021/08/19 07:20:12;;;;;;;;;;;23.60;46.50;;;;;;1565164;74;743;-63
2021/08/19 07:22:14;;;;;;;;;;;23.60;46.50;;;;;;1574560;74;754;-63
2021/08/19 07:24:16;;;;;;;;;;;23.60;46.50;;;;;;1562311;74;738;-62
2021/08/19 07:26:22;;;;;;;;;;;23.60;46.50;;;;;;1558837;74;1146;-62
2021/08/19 07:28:21;;;;;;;;;;;23.60;46.50;;;;;;1559996;74;1650;-62
2021/08/19 07:30:23;;;;;;;;;;;23.70;46.70;;;;;;1556136;74;1944;-63
2021/08/19 07:32:25;;;;;;;;;;;23.60;46.60;;;;;;1573494;74;795;-63
2021/08/19 07:34:27;;;;;;;;;;;23.60;46.50;;;;;;1576449;74;790;-63
2021/08/19 07:36:29;;;;;;;;;;;23.70;46.80;;;;;;1567662;74;1297;-63
2021/08/19 07:38:31;;;;;;;;;;;23.60;46.50;;;;;;1566523;74;749;-63
2021/08/19 07:40:34;;;;;;;;;;;23.60;46.60;;;;;;1576999;74;780;-63
2021/08/19 07:42:36;;;;;;;;;;;23.60;46.60;;;;;;1569085;74;749;-63
2021/08/19 07:44:38;;;;;;;;;;;23.60;46.60;;;;;;1560474;74;871;-63
2021/08/19 07:46:40;;;;;;;;;;;23.70;46.70;;;;;;1560023;74;2125;-67
2021/08/19 07:48:43;;;;;;;;;;;23.60;46.60;;;;;;1510264;76;749;-68
2021/08/19 07:50:45;;;;;;;;;;;23.60;46.60;;;;;;1519056;76;1914;-66
2021/08/19 07:52:47;;;;;;;;;;;23.60;46.60;;;;;;1532659;76;668;-66
2021/08/19 07:54:49;;;;;;;;;;;23.60;46.60;;;;;;1529837;76;712;-67
2021/08/19 07:56:51;;;;;;;;;;;23.60;46.60;;;;;;1526521;75;1220;-66
2021/08/19 07:58:53;;;;;;;;;;;23.70;46.80;;;;;;1547457;76;709;-67
2021/08/19 08:00:56;;;;;;;;;;;23.60;46.60;;;;;;1554851;75;673;-67
2021/08/19 08:02:58;;;;;;;;;;;23.60;46.60;;;;;;1559778;75;777;-67
2021/08/19 08:05:00;;;;;;;;;;;23.60;46.80;;;;;;1552364;75;721;-65
2021/08/19 08:07:02;;;;;;;;;;;23.70;46.80;;;;;;1548975;75;1204;-67
2021/08/19 08:09:03;;;;;;;;;;;23.60;46.60;;;;;;1562498;74;721;-67
2021/08/19 08:11:05;;;;;;;;;;;23.70;46.80;;;;;;1555002;74;1940;-68
2021/08/19 08:13:07;;;;;;;;;;;23.70;46.80;;;;;;1546777;75;698;-67
2021/08/19 08:15:09;;;;;;;;;;;23.70;46.80;;;;;;1563610;74;727;-66
2021/08/19 08:17:11;;;;;;;;;;;23.60;46.70;;;;;;1547125;74;1163;-66
2021/08/19 08:19:15;;;;;;;;;;;23.70;46.80;;;;;;1551506;75;659;-63
2021/08/19 08:21:17;;;;;;;;;;;23.70;46.80;;;;;;1562582;75;717;-66
2021/08/19 08:23:20;;;;;;;;;;;23.70;46.80;;;;;;1568671;75;734;-66
2021/08/19 08:25:22;;;;;;;;;;;23.70;46.80;;;;;;1551135;75;724;-66
2021/08/19 08:27:24;;;;;;;;;;;23.70;46.70;;;;;;1541169;76;1128;-66
2021/08/19 08:29:26;;;;;;;;;;;23.70;46.80;;;;;;1554477;75;790;-66
2021/08/19 08:31:30;;;;;;;;;;;23.60;46.60;;;;;;1556512;75;1911;-67
2021/08/19 08:33:32;;;;;;;;;;;23.60;46.60;;;;;;1563825;75;827;-67
2021/08/19 08:35:37;;;;;;;;;;;23.60;46.50;;;;;;1557963;75;646;-66
2021/08/19 08:37:38;;;;;;;;;;;23.60;46.50;;;;;;1556506;75;1628;-67
2021/08/19 08:39:40;;;;;;;;;;;23.60;46.50;;;;;;1560441;75;723;-67
2021/08/19 08:41:42;;;;;;;;;;;23.70;46.60;;;;;;1559287;75;708;-65
2021/08/19 08:43:44;;;;;;;;;;;23.60;46.40;;;;;;1557984;75;760;-67
2021/08/19 08:45:47;;;;;;;;;;;23.60;46.30;;;;;;1544519;75;745;-67
2021/08/19 08:47:48;;;;;;;;;;;23.70;46.40;;;;;;1554629;76;1120;-67
2021/08/19 08:49:51;;;;;;;;;;;23.70;46.40;;;;;;1560512;76;696;-67
2021/08/19 08:51:58;;;;;;;;;;;23.70;46.40;;;;;;1553199;75;1911;-67
2021/08/19 08:53:57;;;;;;;;;;;23.60;46.30;;;;;;1541080;75;1550;-67
2021/08/19 08:55:59;;;;;;;;;;;23.60;46.20;;;;;;1558335;75;1166;-68
2021/08/19 08:58:00;;;;;;;;;;;23.70;46.30;;;;;;1553331;75;676;-67
2021/08/19 09:00:05;;;;;;;;;;;23.70;46.40;;;;;;1569067;75;949;-67
2021/08/19 09:02:07;;;;;;;;;;;23.60;46.20;;;;;;1541828;76;781;-67
2021/08/19 09:04:09;;;;;;;;;;;23.60;46.20;;;;;;1556068;75;790;-68
2021/08/19 09:06:11;;;;;;;;;;;23.60;46.20;;;;;;1553985;75;1187;-67
2021/08/19 09:08:15;;;;;;;;;;;23.70;46.30;;;;;;1564284;75;725;-67
2021/08/19 09:10:18;;;;;;;;;;;23.60;46.20;;;;;;1546943;75;1004;-65
2021/08/19 09:12:20;;;;;;;;;;;23.60;46.20;;;;;;1558125;75;1950;-67
2021/08/19 09:14:23;;;;;;;;;;;23.70;46.30;;;;;;1528933;76;1357;-67
2021/08/19 09:16:24;;;;;;;;;;;23.60;46.20;;;;;;1558635;75;1117;-67
2021/08/19 09:18:31;;;;;;;;;;;23.60;46.20;;;;;;1555708;75;732;-67
2021/08/19 09:20:36;;;;;;;;;;;23.70;46.30;;;;;;1556789;75;759;-66
2021/08/19 09:22:57;;;;;;;;;;;23.70;46.30;;;;;;1559919;76;745;-67
2021/08/19 09:24:59;;;;;;;;;;;23.70;46.30;;;;;;1555379;75;683;-67
2021/08/19 09:27:11;;;;;;;;;;;23.60;46.10;;;;;;1558455;76;1137;-66
2021/08/19 09:29:20;;;;;;;;;;;23.70;46.20;;;;;;1556899;75;773;-67
2021/08/19 09:31:21;;;;;;;;;;;23.60;46.10;;;;;;1544037;75;2106;-67
2021/08/19 09:33:25;;;;;;;;;;;23.60;46.10;;;;;;1569071;74;782;-66
2021/08/19 09:35:26;;;;;;;;;;;23.60;46.00;;;;;;1555811;75;765;-68
2021/08/19 09:37:28;;;;;;;;;;;23.60;46.00;;;;;;1560144;74;1098;-68
2021/08/19 09:39:34;;;;;;;;;;;23.70;46.10;;;;;;1557128;75;798;-67
2021/08/19 09:41:52;;;;;;;;;;;23.70;46.00;;;;;;1555519;76;709;-69
2021/08/19 09:43:54;;;;;;;;;;;23.70;45.90;;;;;;1559203;75;697;-67
2021/08/19 09:45:55;;;;;;;;;;;23.70;45.90;;;;;;1558447;75;727;-68
2021/08/19 09:48:07;;;;;;;;;;;23.60;45.70;;;;;;1560321;75;762;-68
2021/08/19 09:50:11;;;;;;;;;;;23.70;45.70;;;;;;1562350;75;726;-67
2021/08/19 09:52:13;;;;;;;;;;;23.60;45.60;;;;;;1545157;75;1921;-67
2021/08/19 09:54:15;;;;;;;;;;;23.60;45.60;;;;;;1560315;75;633;-67
2021/08/19 09:56:27;;;;;;;;;;;23.60;45.60;;;;;;1535840;76;1278;-67
2021/08/19 09:58:30;;;;;;;;;;;23.70;45.70;;;;;;1561163;75;1951;-68
2021/08/19 10:00:32;;;;;;;;;;;23.70;45.70;;;;;;1558482;75;700;-67
2021/08/19 10:02:34;;;;;;;;;;;23.70;45.70;;;;;;1564783;75;717;-69
2021/08/19 10:04:36;;;;;;;;;;;23.70;45.70;;;;;;1559551;76;727;-67
2021/08/19 10:06:38;;;;;;;;;;;23.70;45.60;;;;;;1555571;75;1146;-67
2021/08/19 10:08:40;;;;;;;;;;;23.70;45.50;;;;;;1561010;75;1048;-67
2021/08/19 10:10:45;;;;;;;;;;;23.70;45.50;;;;;;1545781;75;687;-67
2021/08/19 10:12:47;;;;;;;;;;;23.60;45.30;;;;;;1564195;75;1917;-67
2021/08/19 10:14:49;;;;;;;;;;;23.70;45.40;;;;;;1560657;75;714;-68
2021/08/19 10:16:51;;;;;;;;;;;23.60;45.20;;;;;;1553120;75;1152;-67
2021/08/19 10:18:53;;;;;;;;;;;23.70;45.30;;;;;;1559822;75;711;-67
2021/08/19 10:20:56;;;;;;;;;;;23.70;45.30;;;;;;1559691;75;786;-66
2021/08/19 10:22:58;;;;;;;;;;;23.60;45.10;;;;;;1555008;75;1474;-67
2021/08/19 10:25:00;;;;;;;;;;;23.80;45.20;;;;;;1560520;76;809;-66
2021/08/19 10:27:08;;;;;;;;;;;23.80;45.30;;;;;;1554748;75;1145;-67
2021/08/19 10:29:10;;;;;;;;;;;23.70;45.20;;;;;;1548572;75;716;-68
2021/08/19 10:31:12;;;;;;;;;;;23.70;45.30;;;;;;1556468;75;1953;-68
2021/08/19 10:33:33;;;;;;;;;;;23.70;45.30;;;;;;1555827;75;685;-67
2021/08/19 10:35:35;;;;;;;;;;;23.70;45.30;;;;;;1556765;75;789;-68
2021/08/19 10:37:47;;;;;;;;;;;23.70;45.30;;;;;;1557183;75;1139;-67
2021/08/19 10:39:49;;;;;;;;;;;23.70;45.40;;;;;;1561851;74;674;-68
2021/08/19 10:41:51;;;;;;;;;;;23.80;45.40;;;;;;1565210;74;732;-68
2021/08/19 10:44:03;;;;;;;;;;;23.70;45.40;;;;;;1557431;75;731;-67
2021/08/19 10:46:09;;;;;;;;;;;23.70;45.50;;;;;;1554318;74;1221;-69
2021/08/19 10:48:12;;;;;;;;;;;23.90;45.60;;;;;;1560324;75;793;-67
2021/08/19 10:50:32;;;;;;;;;;;23.70;45.50;;;;;;1559556;76;717;-67
2021/08/19 10:52:34;;;;;;;;;;;23.80;45.50;;;;;;1550550;76;1907;-67
2021/08/19 10:54:39;;;;;;;;;;;23.80;45.50;;;;;;1566586;75;676;-68
2021/08/19 10:56:43;;;;;;;;;;;23.70;45.50;;;;;;1555320;75;1690;-66
2021/08/19 10:58:45;;;;;;;;;;;23.70;45.60;;;;;;1539349;75;791;-67
2021/08/19 11:00:47;;;;;;;;;;;23.70;45.50;;;;;;1555413;76;712;-67
2021/08/19 11:02:56;;;;;;;;;;;23.70;45.50;;;;;;1559464;75;714;-67
2021/08/19 11:04:55;;;;;;;;;;;23.80;45.40;;;;;;1553281;75;1282;-67
2021/08/19 11:06:57;;;;;;;;;;;23.80;45.50;;;;;;1552641;75;1220;-66
2021/08/19 11:08:59;;;;;;;;;;;23.70;45.40;;;;;;1559250;75;695;-67
2021/08/19 11:11:01;;;;;;;;;;;23.70;45.50;;;;;;1562563;75;683;-67
2021/08/19 11:13:07;;;;;;;;;;;23.80;45.40;;;;;;1562920;75;1938;-67
2021/08/19 11:15:10;;;;;;;;;;;23.70;45.40;;;;;;1555723;75;703;-66
2021/08/19 11:17:13;;;;;;;;;;;23.70;45.30;;;;;;1553595;75;1099;-68
2021/08/19 11:19:16;;;;;;;;;;;23.80;45.40;;;;;;1541568;75;1195;-67
2021/08/19 11:21:18;;;;;;;;;;;23.70;45.30;;;;;;1558623;75;750;-67
2021/08/19 11:23:21;;;;;;;;;;;23.80;45.40;;;;;;1553608;75;765;-66
2021/08/19 11:25:23;;;;;;;;;;;23.90;45.50;;;;;;1543899;75;1099;-66
2021/08/19 11:27:25;;;;;;;;;;;23.90;45.50;;;;;;1545440;75;1148;-68
2021/08/19 11:29:29;;;;;;;;;;;23.80;45.40;;;;;;1554953;76;773;-67
2021/08/19 11:31:31;;;;;;;;;;;23.80;45.30;;;;;;1555797;75;1935;-67
2021/08/19 11:33:32;;;;;;;;;;;23.80;45.40;;;;;;1553794;75;700;-67
2021/08/19 11:35:35;;;;;;;;;;;23.80;45.30;;;;;;1575894;74;796;-68
2021/08/19 11:37:37;;;;;;;;;;;23.80;45.30;;;;;;1560320;74;1117;-67
2021/08/19 11:39:39;;;;;;;;;;;23.70;45.30;;;;;;1556390;75;805;-67
2021/08/19 11:41:41;;;;;;;;;;;23.70;45.30;;;;;;1549553;74;835;-66
2021/08/19 11:43:43;;;;;;;;;;;23.80;45.30;;;;;;1555810;75;712;-66
2021/08/19 11:45:45;;;;;;;;;;;23.80;45.30;;;;;;1555446;75;719;-66
2021/08/19 11:47:47;;;;;;;;;;;23.80;45.30;;;;;;1573317;75;1126;-66
2021/08/19 11:49:50;;;;;;;;;;;23.80;45.30;;;;;;1555462;75;777;-67
2021/08/19 11:51:54;;;;;;;;;;;23.80;45.30;;;;;;1553883;74;1910;-69
2021/08/19 11:53:57;;;;;;;;;;;23.80;45.30;;;;;;1563981;75;1104;-68
2021/08/19 11:56:14;;;;;;;;;;;23.80;45.20;;;;;;1565425;75;1154;-67
2021/08/19 11:58:26;;;;;;;;;;;23.80;45.20;;;;;;1549725;75;802;-67
2021/08/19 12:00:28;;;;;;;;;;;23.80;45.20;;;;;;1542237;76;1366;-67
2021/08/19 12:02:30;;;;;;;;;;;23.80;45.20;;;;;;1554266;75;724;-68
2021/08/19 12:04:35;;;;;;;;;;;23.80;45.30;;;;;;1564345;75;753;-67
2021/08/19 12:06:37;;;;;;;;;;;23.80;45.30;;;;;;1556942;75;1138;-67
2021/08/19 12:08:39;;;;;;;;;;;23.80;45.30;;;;;;1560146;75;706;-67
2021/08/19 12:10:41;;;;;;;;;;;23.80;45.30;;;;;;1561589;75;780;-66